Time;durP1;ratioP1;P1;durP2;ratioP2;P2;SDS_P1;SDS_P2;PMS_P1;PMS_P2;Temp;Humidity;BMP_temperature;BMP_pressure;BME280_temperature;BME280_humidity;BME280_pressure;Samples;Min_cycle;Max_cycle;Signal;HPM_P1;HPM_P2
2022/06/03 00:00:32;;;;;;;9.25;7.82;;;;;;;10.77;90.23;67972.56;4988963;28;20058;-84
2022/06/03 00:03:24;;;;;;;8.48;7.35;;;;;;;10.74;90.53;67967.06;5009445;28;20417;-85
2022/06/03 00:06:27;;;;;;;8.50;7.70;;;;;;;10.72;90.85;67964.22;5007152;28;20038;-85
2022/06/03 00:08:52;;;;;;;8.40;7.60;;;;;;;10.70;90.95;67965.16;4994713;28;20726;-85
2022/06/03 00:11:55;;;;;;;10.13;7.95;;;;;;;10.63;90.78;67954.00;5008942;28;20037;-85
2022/06/03 00:14:59;;;;;;;8.90;7.30;;;;;;;10.56;90.97;67946.63;5009502;28;20042;-85
2022/06/03 00:17:24;;;;;;;10.90;8.20;;;;;;;10.52;90.76;67945.31;4992442;28;20047;-85
2022/06/03 00:20:34;;;;;;;9.52;8.60;;;;;;;10.49;91.45;67933.38;5005935;28;20056;-85
2022/06/03 00:23:32;;;;;;;10.07;8.98;;;;;;;10.45;91.77;67934.16;4971683;28;20577;-84
2022/06/03 00:26:12;;;;;;;10.02;8.95;;;;;;;10.51;91.54;67941.53;4971481;28;20080;-85
2022/06/03 00:28:47;;;;;;;10.30;8.55;;;;;;;10.59;90.93;67950.03;4996767;28;20038;-85
2022/06/03 00:31:31;;;;;;;9.70;8.70;;;;;;;;;;5012497;28;20069;-85
2022/06/03 00:34:06;;;;;;;10.73;8.90;;;;;;;10.59;90.96;67950.59;5006338;28;20038;-85
2022/06/03 00:36:48;;;;;;;11.85;8.80;;;;;;;10.63;90.60;67954.00;4998333;28;20081;-85
2022/06/03 00:39:39;;;;;;;9.45;8.45;;;;;;;10.63;90.70;67957.22;4992283;28;20045;-85
2022/06/03 00:42:13;;;;;;;10.30;9.30;;;;;;;;;;4964497;29;20058;-85
2022/06/03 00:44:47;;;;;;;10.30;9.23;;;;;;;10.63;90.92;67954.56;4991866;28;20082;-84
2022/06/03 00:47:18;;;;;;;9.60;8.50;;;;;;;10.68;90.64;67962.91;5008275;28;20053;-85
2022/06/03 00:50:03;;;;;;;11.07;9.60;;;;;;;;;;4996047;28;20141;-85
2022/06/03 00:52:46;;;;;;;11.25;9.52;;;;;;;10.67;90.61;67958.53;4995365;28;20050;-84
2022/06/03 00:55:40;;;;;;;10.57;9.45;;;;;;;10.66;90.51;67957.41;5011567;28;20053;-84
2022/06/03 00:58:26;;;;;;;9.70;8.68;;;;;;;10.64;90.56;67958.38;5000916;28;20042;-84
2022/06/03 01:01:00;;;;;;;10.23;9.27;;;;;;;10.61;90.63;67952.28;5010944;28;20108;-84
2022/06/03 01:03:54;;;;;;;12.43;10.27;;;;;;;10.56;90.85;67947.19;5011193;28;20042;-84
2022/06/03 01:06:22;;;;;;;10.75;9.13;;;;;;;10.56;91.01;67947.19;5000699;28;20513;-84
2022/06/03 01:09:18;;;;;;;11.35;10.15;;;;;;;10.49;91.51;67941.34;4991195;28;20129;-84
2022/06/03 01:12:15;;;;;;;12.70;9.45;;;;;;;10.44;91.53;67933.56;4973051;28;20573;-84
2022/06/03 01:15:09;;;;;;;11.95;10.75;;;;;;;10.41;91.86;67929.59;4975615;28;20046;-84
2022/06/03 01:18:05;;;;;;;12.45;10.32;;;;;;;10.37;91.85;67926.19;4971584;28;20134;-85
2022/06/03 01:20:34;;;;;;;12.15;10.30;;;;;;;;;;4938484;28;20046;-84
2022/06/03 01:23:17;;;;;;;12.17;10.67;;;;;;;10.40;92.26;67923.72;5003257;28;20046;-83
2022/06/03 01:26:07;;;;;;;12.15;10.95;;;;;;;10.32;92.74;67920.53;4993218;28;20274;-83
2022/06/03 01:28:57;;;;;;;11.90;10.55;;;;;;;10.34;92.59;67922.22;4994895;28;20420;-84
2022/06/03 01:31:48;;;;;;;11.23;10.13;;;;;;;10.35;92.56;67923.38;5003888;28;20073;-84
2022/06/03 01:34:39;;;;;;;12.30;10.32;;;;;;;10.32;92.75;67923.19;5012457;28;20038;-84
2022/06/03 01:37:23;;;;;;;11.20;10.10;;;;;;;10.31;92.66;67918.84;5010599;28;20069;-84
2022/06/03 01:39:57;;;;;;;11.60;10.48;;;;;;;10.32;93.13;67920.53;5011824;28;20049;-83
2022/06/03 01:42:50;;;;;;;12.02;10.88;;;;;;;10.35;93.02;67928.69;5011297;28;20046;-84
2022/06/03 01:45:55;;;;;;;11.73;10.57;;;;;;;10.34;93.01;67922.22;4994360;28;20061;-84
2022/06/03 01:48:48;;;;;;;12.52;11.32;;;;;;;10.30;93.11;67918.28;4920174;29;20052;-84
2022/06/03 01:51:40;;;;;;;12.07;10.65;;;;;;;10.33;93.22;67921.09;4972358;28;20047;-84
2022/06/03 01:54:14;;;;;;;13.25;11.43;;;;;;;10.30;93.28;67920.94;4994154;28;20037;-84
2022/06/03 01:56:45;;;;;;;11.88;10.75;;;;;;;10.35;93.06;67923.38;5011112;28;20038;-83
2022/06/03 01:59:48;;;;;;;12.68;11.38;;;;;;;10.35;93.44;67923.94;5002130;28;20057;-84
2022/06/03 02:02:19;;;;;;;13.30;11.43;;;;;;;10.37;93.26;67925.63;5005515;28;20045;-84
2022/06/03 02:04:57;;;;;;;12.35;10.73;;;;;;;10.36;93.39;67927.16;4990041;28;20038;-84
2022/06/03 02:07:28;;;;;;;11.93;10.43;;;;;;;;;;5008472;28;20042;-84
2022/06/03 02:10:31;;;;;;;12.77;11.25;;;;;;;10.35;93.03;67923.94;5012705;28;20043;-86
2022/06/03 02:13:05;;;;;;;12.18;10.98;;;;;;;10.34;93.68;67916.91;4995726;28;20081;-85
2022/06/03 02:15:54;;;;;;;12.57;11.27;;;;;;;10.30;94.09;67917.69;5009627;28;20043;-85
2022/06/03 02:19:03;;;;;;;12.35;11.15;;;;;;;10.29;94.10;67916.56;4990632;28;20054;-85
2022/06/03 02:21:38;;;;;;;14.15;12.00;;;;;;;10.22;94.15;67909.16;4991363;28;20135;-85
2022/06/03 02:24:15;;;;;;;12.98;11.70;;;;;;;;;;5009520;28;20093;-86
2022/06/03 02:26:44;;;;;;;13.40;12.02;;;;;;;;;;5010017;28;20041;-85
2022/06/03 02:32:25;;;;;;;13.35;12.00;;;;;;;10.27;94.63;67914.28;5003000;28;20037;-86
2022/06/03 02:35:23;;;;;;;13.18;11.77;;;;;;;10.27;94.48;67914.28;4990601;28;20038;-85
2022/06/03 02:37:49;;;;;;;14.73;12.43;;;;;;;;;;4995851;28;20073;-86
2022/06/03 02:40:33;;;;;;;12.65;11.35;;;;;;;;;;4994953;28;20034;-84
2022/06/03 02:43:01;;;;;;;12.90;11.52;;;;;;;;;;4983009;28;20031;-83
2022/06/03 02:45:55;;;;;;;14.10;12.60;;;;;;;10.24;94.52;67905.53;5007220;28;20103;-84
2022/06/03 02:48:56;;;;;;;12.40;11.10;;;;;;;10.19;95.27;67905.75;5002535;28;20082;-84
2022/06/03 02:51:40;;;;;;;12.93;11.57;;;;;;;;;;5008909;28;20034;-84
2022/06/03 02:54:36;;;;;;;13.93;12.40;;;;;;;10.21;95.19;67907.47;5009384;28;20038;-84
2022/06/03 02:57:24;;;;;;;13.35;12.02;;;;;;;10.14;95.77;67900.09;4994157;28;20041;-84
2022/06/03 03:00:01;;;;;;;14.10;11.40;;;;;;;10.10;95.34;67898.78;4993346;28;20118;-84
2022/06/03 03:02:51;;;;;;;13.77;12.30;;;;;;;10.11;95.40;67899.91;4976252;28;20043;-84
2022/06/03 03:05:45;;;;;;;12.38;11.15;;;;;;;10.12;95.32;67898.38;5007955;28;20038;-83
2022/06/03 03:08:34;;;;;;;14.60;11.65;;;;;;;10.09;95.35;67889.66;4991890;28;20022;-83
2022/06/03 03:11:29;;;;;;;13.32;12.02;;;;;;;10.06;96.08;67893.66;4991218;28;20034;-85
2022/06/03 03:14:22;;;;;;;14.75;12.70;;;;;;;10.06;95.69;67891.00;5024815;22;20894;-75
2022/06/03 03:17:00;;;;;;;13.73;12.10;;;;;;;10.03;95.84;67888.16;4991633;28;20160;-77
2022/06/03 03:19:32;;;;;;;14.75;12.18;;;;;;;10.04;95.88;67891.97;5007642;28;20042;-75
2022/06/03 03:22:09;;;;;;;13.93;12.48;;;;;;;10.03;96.57;67887.59;5013927;28;20421;-77
2022/06/03 03:24:53;;;;;;;14.23;12.93;;;;;;;;;;4994650;28;20041;-77
2022/06/03 03:27:40;;;;;;;14.25;12.38;;;;;;;10.03;96.32;67882.28;4986936;28;20094;-76
2022/06/03 03:30:17;;;;;;;13.43;12.02;;;;;;;10.07;95.94;67895.38;4986615;28;20045;-76
2022/06/03 03:32:59;;;;;;;14.63;12.60;;;;;;;10.05;96.37;67890.44;4987006;28;20046;-76
2022/06/03 03:35:38;;;;;;;13.90;12.27;;;;;;;10.08;96.00;67893.28;4987542;28;20056;-75
2022/06/03 03:38:15;;;;;;;;;;;;;;;10.10;95.94;67896.13;4986772;28;20042;-76
2022/06/03 03:41:02;;;;;;;13.70;11.82;;;;;;;10.04;96.54;67888.72;4988275;28;19925;-75
2022/06/03 03:43:49;;;;;;;13.52;12.00;;;;;;;10.11;96.32;67897.25;4992157;28;20034;-77
2022/06/03 03:46:33;;;;;;;13.88;11.40;;;;;;;;;;4997603;28;20050;-78
2022/06/03 03:49:26;;;;;;;13.23;11.93;;;;;;;10.17;96.40;67904.06;5003522;28;20038;-77
2022/06/03 03:52:19;;;;;;;13.48;11.02;;;;;;;10.23;96.17;67912.97;4990522;28;20056;-78
2022/06/03 03:55:06;;;;;;;13.15;11.75;;;;;;;10.28;95.50;67916.00;4976071;28;20145;-77
2022/06/03 03:58:01;;;;;;;12.57;11.20;;;;;;;10.29;95.43;67917.13;4976821;28;20050;-78
2022/06/03 04:00:38;;;;;;;12.98;11.32;;;;;;;;;;4970365;28;20058;-77
2022/06/03 04:03:35;;;;;;;11.95;10.65;;;;;;;10.30;95.19;67920.34;4993694;28;20404;-77
2022/06/03 04:06:45;;;;;;;12.80;10.70;;;;;;;10.31;95.36;67924.16;4990239;28;20046;-77
2022/06/03 04:09:32;;;;;;;14.32;11.93;;;;;;;10.32;95.06;67919.97;4988681;28;20037;-77
2022/06/03 04:12:18;;;;;;;12.57;11.38;;;;;;;10.37;95.38;67928.31;4994488;28;20507;-76
2022/06/03 04:14:48;;;;;;;13.10;11.52;;;;;;;10.32;95.15;67919.97;4990070;28;20137;-76
2022/06/03 04:17:28;;;;;;;12.55;10.52;;;;;;;10.35;95.25;67923.94;4998281;28;20050;-75
2022/06/03 04:20:12;;;;;;;13.13;11.43;;;;;;;10.36;95.70;67925.06;4995475;28;20567;-77
2022/06/03 04:23:05;;;;;;;12.35;11.05;;;;;;;10.39;95.41;67928.47;4972863;28;20093;-76
2022/06/03 04:25:31;;;;;;;12.63;11.35;;;;;;;10.41;95.24;67930.16;4971138;28;20054;-75
2022/06/03 04:28:25;;;;;;;14.13;11.43;;;;;;;10.43;95.54;67932.44;4993996;28;20065;-77
2022/06/03 04:30:54;;;;;;;14.75;10.88;;;;;;;;;;4979149;28;20042;-77
2022/06/03 04:33:25;;;;;;;13.43;10.70;;;;;;;;;;4992892;28;20049;-77
2022/06/03 04:35:50;;;;;;;13.88;10.43;;;;;;;10.53;95.25;67943.81;4994698;28;20117;-75
2022/06/03 04:38:53;;;;;;;10.30;9.27;;;;;;;10.59;94.56;67945.28;4991938;28;20513;-76
2022/06/03 04:41:19;;;;;;;13.10;11.10;;;;;;;10.63;94.75;67954.00;4989768;28;20486;-76
2022/06/03 04:44:22;;;;;;;11.98;10.18;;;;;;;10.68;94.25;67965.00;4991876;28;20046;-77
2022/06/03 04:46:47;;;;;;;12.10;10.75;;;;;;;10.72;94.24;67964.78;4974621;28;20034;-77
2022/06/03 04:49:31;;;;;;;13.45;10.35;;;;;;;10.79;93.85;67972.75;4991296;28;20093;-77
2022/06/03 04:52:45;;;;;;;11.63;9.73;;;;;;;10.82;93.66;67975.56;4991505;28;20452;-77
2022/06/03 04:55:23;;;;;;;11.32;9.75;;;;;;;;;;4971723;28;20046;-77
2022/06/03 04:58:07;;;;;;;14.95;10.80;;;;;;;10.93;93.48;67988.03;4988074;28;20118;-76
2022/06/03 05:00:48;;;;;;;11.82;10.40;;;;;;;11.03;93.17;67998.84;4954575;28;20038;-77
2022/06/03 05:03:20;;;;;;;11.43;9.50;;;;;;;11.04;93.41;67999.97;4988166;28;20041;-77
2022/06/03 05:06:23;;;;;;;11.27;10.00;;;;;;;11.10;92.45;68008.88;4980204;28;20043;-76
2022/06/03 05:09:33;;;;;;;11.52;9.65;;;;;;;11.19;92.04;68016.44;4973704;28;20038;-77
2022/06/03 05:12:17;;;;;;;10.77;9.68;;;;;;;11.23;92.21;68021.53;4897536;29;20138;-76
2022/06/03 05:14:45;;;;;;;10.55;9.52;;;;;;;11.29;92.19;68028.34;4894977;29;20059;-76
2022/06/03 05:17:23;;;;;;;11.33;9.13;;;;;;;11.40;91.47;68040.28;4957589;28;20041;-75
2022/06/03 05:20:06;;;;;;;10.80;9.32;;;;;;;11.46;91.96;68049.19;4982645;28;20072;-75
2022/06/03 05:23:00;;;;;;;11.85;9.70;;;;;;;11.56;91.12;68057.31;4983219;28;20070;-76
2022/06/03 05:25:58;;;;;;;10.25;9.18;;;;;;;11.65;90.74;68067.53;4950110;28;20042;-76
2022/06/03 05:28:48;;;;;;;10.10;9.10;;;;;;;11.76;90.20;68080.03;4966132;28;20057;-76
2022/06/03 05:31:35;;;;;;;10.15;8.95;;;;;;;11.88;89.65;68093.13;4987493;28;20393;-76
2022/06/03 05:34:06;;;;;;;11.25;8.43;;;;;;;12.02;89.33;68108.44;4990630;28;20045;-77
2022/06/03 05:36:53;;;;;;;11.32;9.00;;;;;;;12.07;88.15;68114.72;4988697;28;20066;-75
2022/06/03 05:39:47;;;;;;;9.70;8.70;;;;;;;12.19;88.09;68127.78;4988538;28;20034;-77
2022/06/03 05:42:43;;;;;;;9.07;8.07;;;;;;;12.29;87.00;68144.47;4966240;28;20061;-76
2022/06/03 05:45:08;;;;;;;10.00;8.30;;;;;;;;;;4987235;28;20029;-75
2022/06/03 05:47:39;;;;;;;9.40;8.30;;;;;;;12.50;86.47;68162.44;4987780;28;20046;-74
2022/06/03 05:50:05;;;;;;;10.10;8.35;;;;;;;;;;4982507;28;20289;-74
2022/06/03 05:52:49;;;;;;;11.13;8.13;;;;;;;;;;4988388;28;20100;-75
2022/06/03 05:55:21;;;;;;;10.05;8.32;;;;;;;;;;4986502;28;20274;-75
2022/06/03 05:57:56;;;;;;;12.40;8.30;;;;;;;12.96;84.61;68213.59;4987254;28;20108;-76
2022/06/03 06:00:33;;;;;;;9.70;8.00;;;;;;;13.09;83.71;68222.47;4988479;28;20050;-75
2022/06/03 06:03:02;;;;;;;12.77;7.82;;;;;;;13.20;83.05;68234.41;4987535;28;20042;-76
2022/06/03 06:05:51;;;;;;;9.57;7.53;;;;;;;13.29;82.63;68245.22;4987991;28;20126;-75
2022/06/03 06:08:32;;;;;;;9.63;7.93;;;;;;;13.42;81.95;68264.22;4983497;28;20281;-74
2022/06/03 06:11:27;;;;;;;7.93;6.85;;;;;;;13.58;81.08;68277.09;4987818;28;20441;-75
2022/06/03 06:14:11;;;;;;;7.95;6.88;;;;;;;;;;4970703;28;20599;-76
2022/06/03 06:16:42;;;;;;;7.68;6.53;;;;;;;13.83;79.39;68312.41;4970487;28;20153;-74
2022/06/03 06:19:35;;;;;;;7.78;6.22;;;;;;;13.91;78.62;68318.84;4987329;28;20050;-76
2022/06/03 06:22:09;;;;;;;6.93;5.72;;;;;;;14.06;77.80;68329.97;4986822;28;20502;-76
2022/06/03 06:24:34;;;;;;;7.03;6.28;;;;;;;;;;4984684;28;20046;-75
2022/06/03 06:27:09;;;;;;;6.67;5.67;;;;;;;;;;4987673;28;20049;-75
2022/06/03 06:29:49;;;;;;;8.30;5.97;;;;;;;14.39;75.81;68366.97;4967372;28;20277;-75
2022/06/03 06:32:45;;;;;;;7.00;5.25;;;;;;;14.50;75.14;68384.25;4986146;28;20084;-75
2022/06/03 06:35:10;;;;;;;6.60;5.50;;;;;;;;;;4987456;28;20054;-75
2022/06/03 06:37:38;;;;;;;7.80;5.80;;;;;;;14.69;74.89;68405.34;4986974;28;20117;-76
2022/06/03 06:40:09;;;;;;;6.85;5.57;;;;;;;14.75;74.29;68406.81;4987803;28;20305;-75
2022/06/03 06:43:01;;;;;;;5.88;5.00;;;;;;;14.81;74.58;68419.03;4958362;28;20042;-76
2022/06/03 06:45:36;;;;;;;8.70;5.55;;;;;;;14.97;73.75;68431.31;4986572;28;20716;-76
2022/06/03 06:48:20;;;;;;;5.85;5.20;;;;;;;;;;4987690;28;20034;-76
2022/06/03 06:50:48;;;;;;;6.20;5.60;;;;;;;;;;4971709;28;20045;-75
2022/06/03 06:53:19;;;;;;;5.83;5.03;;;;;;;15.40;72.99;68479.72;4983539;28;20042;-74
2022/06/03 06:56:14;;;;;;;6.72;5.50;;;;;;;15.56;71.66;68503.31;4987144;28;20042;-75
2022/06/03 06:58:42;;;;;;;6.95;4.95;;;;;;;15.66;72.34;68508.22;4952452;28;20420;-75
2022/06/03 07:01:10;;;;;;;6.65;5.28;;;;;;;15.76;71.83;68520.19;4986289;28;20074;-75
2022/06/03 07:03:59;;;;;;;5.67;4.80;;;;;;;15.91;71.01;68531.34;4977766;28;20088;-76
2022/06/03 07:06:51;;;;;;;7.35;5.15;;;;;;;15.88;69.61;68538.66;4986340;28;20046;-76
2022/06/03 07:09:38;;;;;;;7.22;5.07;;;;;;;15.94;70.56;68544.91;4981361;28;20038;-76
2022/06/03 07:12:15;;;;;;;6.93;4.68;;;;;;;;;;4978176;28;20037;-76
2022/06/03 07:14:58;;;;;;;8.02;4.60;;;;;;;;;;4986469;28;20057;-76
2022/06/03 07:20:20;;;;;;;7.85;5.40;;;;;;;16.44;68.54;68595.97;4987967;28;20057;-76
2022/06/03 07:23:07;;;;;;;6.57;4.80;;;;;;;16.52;67.69;68603.97;4987749;28;20038;-76
2022/06/03 07:25:44;;;;;;;7.88;4.75;;;;;;;;;;4969273;28;20042;-76
2022/06/03 07:28:22;;;;;;;9.98;5.03;;;;;;;16.71;65.10;68631.00;4976455;28;20654;-76
2022/06/03 07:31:00;;;;;;;6.88;4.05;;;;;;;16.81;66.03;68641.88;4987723;28;20042;-76
2022/06/03 07:33:32;;;;;;;6.57;4.35;;;;;;;16.96;66.44;68650.34;4987052;28;20809;-76
2022/06/03 07:36:33;;;;;;;5.28;4.05;;;;;;;17.11;65.97;68667.44;4988428;28;20053;-76
2022/06/03 07:39:11;;;;;;;6.38;4.82;;;;;;;17.20;65.32;68679.81;4931629;28;20050;-76
2022/06/03 07:41:50;;;;;;;7.53;4.43;;;;;;;17.39;64.32;68706.88;4969509;28;20050;-77
2022/06/03 07:44:24;;;;;;;6.47;4.30;;;;;;;17.43;64.15;68705.47;4987229;28;20049;-76
2022/06/03 07:47:00;;;;;;;6.60;4.60;;;;;;;17.57;63.98;68718.75;4975124;28;20069;-75
2022/06/03 07:49:27;;;;;;;5.90;4.72;;;;;;;17.72;63.72;68738.00;4987533;28;20038;-76
2022/06/03 07:51:57;;;;;;;9.27;4.70;;;;;;;17.79;62.93;68746.59;4987109;28;20420;-76
2022/06/03 07:54:34;;;;;;;6.03;4.80;;;;;;;17.85;62.71;68750.19;4986921;28;20515;-76
2022/06/03 07:57:19;;;;;;;4.82;4.30;;;;;;;17.92;62.89;68765.66;4987258;28;20041;-76
2022/06/03 07:59:44;;;;;;;8.40;5.40;;;;;;;17.94;61.74;68763.13;4965734;28;20136;-76
2022/06/03 08:02:18;;;;;;;5.60;4.97;;;;;;;17.95;62.20;68763.69;4987154;28;20542;-76
2022/06/03 08:04:47;;;;;;;6.03;4.85;;;;;;;18.08;62.00;68775.84;4987882;28;20066;-76
2022/06/03 08:12:58;;;;;;;6.38;5.18;;;;;;;18.26;60.97;68804.47;4987004;28;20053;-75
2022/06/03 08:15:31;;;;;;;9.00;5.10;;;;;;;18.23;60.91;68792.97;4987526;28;20054;-76
2022/06/03 08:18:00;;;;;;;6.30;5.18;;;;;;;18.42;60.80;68816.22;4987436;28;20038;-75
2022/06/03 08:20:27;;;;;;;6.00;4.88;;;;;;;18.40;60.79;68813.94;4987530;28;20042;-77
2022/06/03 08:22:53;;;;;;;5.97;5.15;;;;;;;18.50;59.87;68822.66;4986519;28;20054;-75
2022/06/03 08:25:25;;;;;;;6.78;4.88;;;;;;;18.63;59.65;68845.03;4987026;28;20035;-76
2022/06/03 08:27:52;;;;;;;10.30;4.75;;;;;;;18.65;59.21;68841.91;4988024;28;20538;-75
2022/06/03 08:30:28;;;;;;;4.85;4.25;;;;;;;18.77;58.99;68855.06;4990627;28;20030;-75
2022/06/03 08:32:59;;;;;;;5.90;3.97;;;;;;;;;;4991831;28;20142;-76
2022/06/03 08:35:29;;;;;;;6.10;4.38;;;;;;;19.09;58.90;68891.63;4978248;28;20054;-76
2022/06/03 08:38:25;;;;;;;4.90;3.70;;;;;;;19.28;57.84;68917.59;4996167;28;20076;-77
2022/06/03 08:41:02;;;;;;;5.32;4.32;;;;;;;19.42;56.61;68928.19;4955728;28;20098;-76
2022/06/03 08:44:13;;;;;;;5.40;3.95;;;;;;;19.63;58.18;68956.44;4990462;28;20046;-75
2022/06/03 08:46:41;;;;;;;5.22;3.80;;;;;;;19.68;55.83;68951.94;4961458;28;20039;-77
2022/06/03 08:49:15;;;;;;;10.35;3.67;;;;;;;19.70;54.28;68956.34;4991464;28;20035;-77
2022/06/03 08:51:56;;;;;;;4.43;3.60;;;;;;;19.85;55.46;68976.19;4988911;28;20046;-76
2022/06/03 08:54:28;;;;;;;5.72;3.80;;;;;;;19.99;55.82;68992.19;4990777;28;20868;-76
2022/06/03 08:57:08;;;;;;;6.10;3.50;;;;;;;20.23;56.48;69015.81;4990610;28;20042;-75
2022/06/03 08:59:42;;;;;;;5.60;3.63;;;;;;;20.13;52.17;69012.47;4960899;28;20700;-76
2022/06/03 09:02:18;;;;;;;4.50;3.75;;;;;;;20.00;54.00;68998.75;4972211;28;20054;-76
2022/06/03 09:04:55;;;;;;;5.22;3.47;;;;;;;20.15;54.51;69007.22;4990726;28;20038;-75
2022/06/03 09:07:41;;;;;;;4.65;2.88;;;;;;;20.30;53.41;69021.09;4972551;28;20041;-76
2022/06/03 09:10:16;;;;;;;5.45;2.85;;;;;;;;;;4989860;28;20044;-76
2022/06/03 09:12:47;;;;;;;4.85;2.80;;;;;;;;;;4972511;28;20250;-76
2022/06/03 09:15:17;;;;;;;5.28;3.28;;;;;;;;;;4990071;28;20050;-77
2022/06/03 09:17:54;;;;;;;4.72;2.80;;;;;;;20.80;53.21;69082.56;4990367;28;20073;-77
2022/06/03 09:20:19;;;;;;;4.05;2.95;;;;;;;;;;4972698;28;20038;-76
2022/06/03 09:22:47;;;;;;;5.73;2.50;;;;;;;20.80;49.62;69079.84;4989624;28;20413;-76
2022/06/03 09:25:16;;;;;;;4.20;2.85;;;;;;;20.85;49.75;69082.84;4990005;28;20285;-76
2022/06/03 09:27:43;;;;;;;4.20;2.65;;;;;;;20.99;49.91;69101.00;4972741;28;20498;-76
2022/06/03 09:30:12;;;;;;;6.13;2.70;;;;;;;21.13;49.63;69119.72;4988456;28;20037;-77
2022/06/03 09:32:39;;;;;;;3.88;3.05;;;;;;;;;;4989844;28;20497;-77
2022/06/03 09:35:11;;;;;;;4.30;2.60;;;;;;;21.03;49.38;69105.00;4973077;28;20501;-77
2022/06/03 09:37:57;;;;;;;5.75;2.65;;;;;;;21.27;50.75;69134.63;4971154;28;20046;-77
2022/06/03 09:40:28;;;;;;;3.22;2.17;;;;;;;21.39;48.28;69140.81;4981321;28;20038;-77
2022/06/03 09:43:24;;;;;;;2.65;2.25;;;;;;;21.53;50.81;69161.09;4989070;28;20168;-77
2022/06/03 09:45:52;;;;;;;5.32;2.60;;;;;;;21.54;47.81;69162.25;4959905;28;20070;-77
2022/06/03 09:48:21;;;;;;;4.93;2.60;;;;;;;21.33;47.49;69139.34;4989648;28;20401;-77
2022/06/03 09:50:50;;;;;;;6.60;2.50;;;;;;;21.48;47.59;69158.09;4972378;28;20057;-77
2022/06/03 09:53:19;;;;;;;6.88;2.78;;;;;;;21.61;49.02;69167.56;4988705;28;20689;-77
2022/06/03 09:55:53;;;;;;;5.80;3.05;;;;;;;21.60;47.79;69169.09;4988860;28;20041;-76
2022/06/03 09:58:23;;;;;;;4.43;2.53;;;;;;;21.54;48.37;69164.94;4989244;28;20094;-76
2022/06/03 10:00:52;;;;;;;4.50;2.75;;;;;;;21.72;47.36;69185.56;4989661;28;20569;-76
2022/06/03 10:03:18;;;;;;;;;;;;;;;21.75;47.30;69183.56;4988429;28;20072;-77
2022/06/03 10:05:47;;;;;;;4.32;2.60;;;;;;;21.86;47.55;69201.56;4990031;28;20472;-77
2022/06/03 10:08:18;;;;;;;4.60;2.90;;;;;;;21.91;46.85;69204.00;4989004;28;20043;-77
2022/06/03 10:13:31;;;;;;;4.82;2.25;;;;;;;22.03;46.73;69217.75;4988009;28;20089;-77
2022/06/03 10:15:59;;;;;;;;;;;;;;;22.14;45.88;69231.91;4988919;28;20113;-77
2022/06/03 10:18:47;;;;;;;4.25;2.20;;;;;;;22.08;46.91;69226.19;4988986;28;19920;-77
2022/06/03 10:21:12;;;;;;;6.00;1.98;;;;;;;22.14;45.47;69229.78;4976609;28;20525;-77
2022/06/03 10:23:43;;;;;;;8.88;2.28;;;;;;;22.32;46.29;69247.09;4987642;28;20134;-77
2022/06/03 10:26:17;;;;;;;4.32;1.98;;;;;;;22.37;44.39;69255.56;4988344;28;20477;-77
2022/06/03 10:28:43;;;;;;;2.78;1.70;;;;;;;22.34;45.97;69251.56;4969729;28;20071;-76
2022/06/03 10:31:35;;;;;;;3.20;1.77;;;;;;;22.42;43.62;69258.56;4978778;28;20513;-77
2022/06/03 10:34:04;;;;;;;4.00;2.00;;;;;;;22.56;45.17;69273.44;4971969;28;20045;-76
2022/06/03 10:36:34;;;;;;;4.13;1.67;;;;;;;22.84;45.27;69308.22;4988443;28;20136;-76
2022/06/03 10:39:00;;;;;;;3.20;1.50;;;;;;;22.82;43.95;69299.94;4987473;28;20038;-77
2022/06/03 10:41:41;;;;;;;2.55;1.60;;;;;;;22.91;44.17;69312.97;4987518;28;20105;-76
2022/06/03 10:44:19;;;;;;;3.30;1.70;;;;;;;22.77;42.53;69297.50;4987684;28;20584;-77
2022/06/03 10:46:57;;;;;;;5.18;1.98;;;;;;;22.73;43.72;69298.94;4988953;28;20557;-77
2022/06/03 10:49:25;;;;;;;2.83;1.85;;;;;;;22.80;42.81;69305.81;4974701;28;21620;-76
2022/06/03 11:02:58;;;;;;;3.45;1.90;;;;;;;23.04;41.27;69330.00;4987061;28;20156;-77
2022/06/03 11:05:31;;;;;;;2.90;1.95;;;;;;;22.99;41.15;69327.59;4987045;28;20509;-76
2022/06/03 11:08:16;;;;;;;2.15;1.40;;;;;;;22.98;41.14;69318.28;4987546;28;20521;-77
2022/06/03 11:10:50;;;;;;;2.70;1.52;;;;;;;23.02;41.02;69325.59;4940099;28;20133;-77
2022/06/03 11:13:39;;;;;;;3.03;1.83;;;;;;;23.11;40.43;69335.91;4986406;28;20200;-77
2022/06/03 11:16:19;;;;;;;3.00;1.33;;;;;;;23.31;39.53;69360.97;4986834;28;20489;-77
2022/06/03 11:18:45;;;;;;;2.13;1.30;;;;;;;23.44;39.50;69375.28;4976171;28;20577;-76
2022/06/03 11:21:27;;;;;;;2.55;1.30;;;;;;;23.40;39.60;69367.97;4980978;28;20060;-76
2022/06/03 11:23:55;;;;;;;5.47;1.80;;;;;;;23.42;39.22;69373.00;4977353;28;20047;-77
2022/06/03 11:26:27;;;;;;;2.42;1.42;;;;;;;23.54;39.65;69388.88;4987729;28;20042;-77
2022/06/03 11:28:59;;;;;;;2.60;1.45;;;;;;;23.52;38.09;69386.59;4989016;28;20049;-76
2022/06/03 11:31:30;;;;;;;2.92;1.55;;;;;;;23.52;38.41;69383.88;4987034;28;20042;-76
2022/06/03 11:33:56;;;;;;;4.00;1.70;;;;;;;23.78;38.22;69407.69;4986569;28;20046;-77
2022/06/03 11:36:21;;;;;;;2.75;1.77;;;;;;;23.83;39.56;69416.13;4988809;28;20046;-76
2022/06/03 11:38:55;;;;;;;3.42;2.38;;;;;;;24.00;39.50;69435.06;4987795;28;20034;-77
2022/06/03 11:41:39;;;;;;;2.25;1.63;;;;;;;23.78;38.37;69416.41;4986167;28;20061;-78
2022/06/03 11:44:11;;;;;;;2.38;1.63;;;;;;;23.78;39.22;69416.41;4986127;28;20533;-77
2022/06/03 11:46:42;;;;;;;2.72;1.75;;;;;;;23.78;37.32;69413.13;4986768;28;20039;-77
2022/06/03 11:49:08;;;;;;;3.00;1.45;;;;;;;23.79;38.96;69416.97;4987147;28;20042;-77
2022/06/03 11:51:34;;;;;;;2.75;1.77;;;;;;;23.82;37.51;69417.69;4968561;28;20046;-77
2022/06/03 11:54:01;;;;;;;2.90;1.58;;;;;;;23.82;38.56;69414.97;4987149;28;20038;-77
2022/06/03 11:56:30;;;;;;;4.25;1.30;;;;;;;23.71;37.20;69405.09;4968382;28;20129;-77
2022/06/03 11:58:58;;;;;;;;;;;;;;;23.77;37.80;69409.84;4986835;28;20042;-76
2022/06/03 12:01:30;;;;;;;2.40;1.40;;;;;;;23.75;37.72;69412.97;4985740;28;20412;-77
2022/06/03 12:04:14;;;;;;;2.30;1.63;;;;;;;23.95;37.88;69435.31;4989747;28;20042;-76
2022/06/03 12:06:53;;;;;;;3.75;1.65;;;;;;;23.85;37.14;69418.41;4956882;28;20136;-77
2022/06/03 12:09:38;;;;;;;4.82;1.85;;;;;;;23.91;38.36;69430.16;4990297;28;20049;-76
2022/06/03 12:15:28;;;;;;;3.95;1.92;;;;;;;;;;4976443;28;20053;-76
2022/06/03 12:17:54;;;;;;;;;;;;;;;24.37;37.90;69481.75;4954644;28;20489;-77
2022/06/03 12:20:31;;;;;;;2.95;1.65;;;;;;;24.47;37.46;69491.09;4990360;28;19929;-77
2022/06/03 12:23:12;;;;;;;3.65;1.60;;;;;;;24.54;36.57;69499.13;4991380;28;20038;-77
2022/06/03 12:25:40;;;;;;;2.83;1.80;;;;;;;24.38;37.16;69478.03;4973326;28;20042;-77
2022/06/03 12:28:15;;;;;;;3.78;1.80;;;;;;;24.29;37.34;69470.44;4991501;28;20038;-78
2022/06/03 12:30:51;;;;;;;2.60;1.70;;;;;;;24.23;36.58;69464.13;4974980;28;20046;-77
2022/06/03 12:33:29;;;;;;;2.20;1.20;;;;;;;24.35;36.48;69479.47;4989919;28;20042;-77
2022/06/03 12:35:59;;;;;;;3.53;1.60;;;;;;;24.51;37.03;69492.38;4985961;28;20124;-77
2022/06/03 12:38:41;;;;;;;2.50;1.40;;;;;;;24.60;36.57;69502.13;4990094;28;20092;-76
2022/06/03 12:41:07;;;;;;;3.45;1.60;;;;;;;24.80;36.63;69525.09;4990919;28;20037;-77
2022/06/03 12:43:57;;;;;;;4.18;1.80;;;;;;;24.88;37.61;69536.97;4990561;28;20550;-77
2022/06/03 12:46:38;;;;;;;3.55;1.50;;;;;;;25.02;38.30;69549.16;4960525;28;20046;-77
2022/06/03 12:49:16;;;;;;;3.05;1.30;;;;;;;25.15;34.84;69566.81;4990491;28;20038;-77
2022/06/03 12:51:57;;;;;;;3.22;1.80;;;;;;;25.10;35.61;69558.34;4973160;28;20045;-77
2022/06/03 12:54:23;;;;;;;3.88;1.40;;;;;;;25.20;36.24;69572.53;4991275;28;20034;-77
2022/06/03 12:57:05;;;;;;;2.63;1.40;;;;;;;25.17;35.87;69572.41;4990823;28;20038;-77
2022/06/03 12:59:52;;;;;;;1.90;1.27;;;;;;;25.34;36.29;69591.34;4991036;28;20131;-77
2022/06/03 13:02:27;;;;;;;5.53;1.35;;;;;;;25.62;36.06;69616.88;4990061;28;20034;-77
2022/06/03 13:04:55;;;;;;;2.75;1.60;;;;;;;25.58;35.41;69609.56;4987593;28;20044;-77
2022/06/03 13:07:26;;;;;;;2.35;1.30;;;;;;;25.76;36.50;69632.38;4989111;28;20836;-77
2022/06/03 13:10:04;;;;;;;2.47;1.27;;;;;;;25.80;35.73;69636.94;4991304;28;20125;-77
2022/06/03 13:12:32;;;;;;;2.83;1.33;;;;;;;25.71;35.30;69623.91;4990269;28;20053;-77
2022/06/03 13:15:16;;;;;;;2.85;1.65;;;;;;;25.55;36.88;69608.81;4989918;28;20042;-77